createdAt,value
2023-05-23T00:00:16.018Z,8.73
2023-05-23T00:02:43.623Z,9.32
2023-05-23T00:05:10.344Z,9.07
2023-05-23T00:07:37.127Z,9.73
2023-05-23T00:10:04.584Z,9.27
2023-05-23T00:12:31.334Z,8.13
2023-05-23T00:14:57.930Z,9.32
2023-05-23T00:17:26.353Z,8.27
2023-05-23T00:19:52.957Z,9.75
2023-05-23T00:22:19.614Z,9.57
2023-05-23T00:24:46.263Z,8.40
2023-05-23T00:27:13.043Z,9.55
2023-05-23T00:29:39.751Z,9.35
2023-05-23T00:32:06.706Z,8.70
2023-05-23T00:34:34.210Z,8.57
2023-05-23T00:37:02.160Z,8.73
2023-05-23T00:39:28.825Z,9.90
2023-05-23T00:41:56.389Z,8.65
2023-05-23T00:44:23.092Z,8.65
2023-05-23T00:46:53.666Z,8.70
2023-05-23T00:49:21.147Z,8.95
2023-05-23T00:51:49.646Z,8.50
2023-05-23T00:54:21.008Z,9.18
2023-05-23T00:56:48.728Z,10.23
2023-05-23T00:59:17.018Z,10.75
2023-05-23T01:01:47.040Z,9.60
2023-05-23T01:04:16.562Z,10.05
2023-05-23T01:06:46.996Z,9.45
2023-05-23T01:09:16.281Z,9.35
2023-05-23T01:12:09.305Z,9.80
2023-05-23T01:14:46.556Z,8.68
2023-05-23T01:17:23.183Z,8.27
2023-05-23T01:20:06.063Z,10.13
2023-05-23T01:22:42.392Z,9.00
2023-05-23T01:25:09.088Z,8.50
2023-05-23T01:27:52.948Z,8.23
2023-05-23T01:30:21.084Z,9.75
2023-05-23T01:32:50.645Z,8.75
2023-05-23T01:35:23.056Z,8.65
2023-05-23T01:37:52.009Z,9.25
2023-05-23T01:40:18.601Z,10.52
2023-05-23T01:42:45.458Z,10.20
2023-05-23T01:45:12.719Z,8.98
2023-05-23T01:47:40.866Z,9.45
2023-05-23T01:50:09.570Z,8.70
2023-05-23T01:52:36.967Z,9.48
2023-05-23T01:55:09.590Z,10.25
2023-05-23T01:57:38.133Z,9.55
2023-05-23T02:00:06.994Z,10.93
2023-05-23T02:02:40.263Z,9.30
2023-05-23T02:05:07.526Z,10.13
2023-05-23T02:07:34.257Z,10.65
2023-05-23T02:10:01.304Z,9.68
2023-05-23T02:14:55.177Z,9.13
2023-05-23T02:17:24.825Z,9.63
2023-05-23T02:19:51.445Z,9.95
2023-05-23T02:22:18.141Z,9.38
2023-05-23T02:24:44.741Z,10.60
2023-05-23T02:27:13.093Z,10.38
2023-05-23T02:29:39.679Z,10.50
2023-05-23T02:32:06.651Z,11.35
2023-05-23T02:34:33.349Z,10.88
2023-05-23T02:37:00.111Z,10.32
2023-05-23T02:39:27.668Z,9.35
2023-05-23T02:41:55.290Z,11.48
2023-05-23T02:44:22.183Z,10.73
2023-05-23T02:46:48.987Z,10.77
2023-05-23T02:49:15.728Z,12.10
2023-05-23T02:51:42.411Z,11.82
2023-05-23T02:54:09.137Z,11.52
2023-05-23T02:56:37.592Z,10.13
2023-05-23T02:59:04.183Z,10.38
2023-05-23T03:01:31.631Z,10.70
2023-05-23T03:03:58.353Z,9.73
2023-05-23T03:06:25.362Z,10.75
2023-05-23T03:08:52.015Z,10.07
2023-05-23T03:11:18.806Z,9.35
2023-05-23T03:13:45.484Z,10.00
2023-05-23T03:16:13.208Z,10.75
2023-05-23T03:18:42.447Z,9.73
2023-05-23T03:21:09.682Z,9.65
2023-05-23T03:23:36.683Z,9.60
2023-05-23T03:26:04.043Z,10.00
2023-05-23T03:28:33.621Z,9.30
2023-05-23T03:31:00.440Z,9.50
2023-05-23T03:33:27.194Z,8.07
2023-05-23T03:35:54.180Z,10.00
2023-05-23T03:38:20.852Z,7.95
2023-05-23T03:40:47.643Z,7.72
2023-05-23T03:43:15.122Z,9.90
2023-05-23T03:45:43.376Z,7.82
2023-05-23T03:48:13.517Z,9.35
2023-05-23T03:50:42.403Z,8.70
2023-05-23T03:53:10.854Z,8.88
2023-05-23T03:55:39.444Z,8.07
2023-05-23T03:58:06.457Z,9.07
2023-05-23T04:00:33.237Z,9.15
2023-05-23T04:03:01.918Z,9.30
2023-05-23T04:05:29.641Z,9.27
2023-05-23T04:07:57.044Z,8.93
2023-05-23T04:10:24.110Z,8.10
2023-05-23T04:12:51.682Z,8.70
2023-05-23T04:15:21.441Z,9.75
2023-05-23T04:17:54.927Z,8.48
2023-05-23T04:20:22.056Z,9.05
2023-05-23T04:22:48.956Z,8.38
2023-05-23T04:25:20.375Z,8.68
2023-05-23T04:28:10.298Z,9.48
2023-05-23T04:30:37.009Z,8.65
2023-05-23T04:33:04.666Z,10.32
2023-05-23T04:35:34.154Z,9.32
2023-05-23T04:40:26.840Z,10.10
2023-05-23T04:43:02.142Z,9.10
2023-05-23T04:45:40.240Z,9.88
2023-05-23T04:48:27.534Z,9.65
2023-05-23T04:50:56.244Z,8.35
2023-05-23T04:53:23.233Z,10.15
2023-05-23T04:55:50.045Z,9.77
2023-05-23T04:58:18.151Z,11.23
2023-05-23T05:00:45.489Z,10.80
2023-05-23T05:03:14.370Z,11.18
2023-05-23T05:05:44.170Z,11.05
2023-05-23T05:08:11.513Z,11.50
2023-05-23T05:10:40.560Z,10.18
2023-05-23T05:13:08.483Z,10.55
2023-05-23T05:18:09.787Z,9.65
2023-05-23T05:20:36.703Z,9.13
2023-05-23T05:23:03.328Z,10.02
2023-05-23T05:25:32.283Z,9.18
2023-05-23T05:28:03.086Z,11.10
2023-05-23T05:30:35.426Z,8.82
2023-05-23T05:33:04.154Z,8.43
2023-05-23T05:35:32.469Z,9.10
2023-05-23T05:38:00.338Z,9.20
2023-05-23T05:40:26.938Z,9.85
2023-05-23T05:42:54.043Z,8.05
2023-05-23T05:45:22.354Z,9.63
2023-05-23T05:47:49.458Z,10.00
2023-05-23T05:50:20.307Z,9.70
2023-05-23T05:52:47.151Z,10.10
2023-05-23T05:55:13.906Z,9.13
2023-05-23T05:57:45.480Z,10.18
2023-05-23T06:00:18.936Z,9.57
2023-05-23T06:02:51.583Z,8.80
2023-05-23T06:05:39.767Z,8.80
2023-05-23T06:08:06.795Z,8.55
2023-05-23T06:10:33.798Z,8.60
2023-05-23T06:13:01.030Z,8.00
2023-05-23T06:15:27.809Z,8.90
2023-05-23T06:17:54.451Z,9.57
2023-05-23T06:20:21.682Z,8.95
2023-05-23T06:22:48.626Z,8.90
2023-05-23T06:25:15.565Z,9.65
2023-05-23T06:27:42.266Z,8.95
2023-05-23T06:30:09.844Z,7.90
2023-05-23T06:32:36.856Z,8.95
2023-05-23T06:35:04.306Z,7.70
2023-05-23T06:37:34.695Z,8.80
2023-05-23T06:40:01.381Z,8.85
2023-05-23T06:42:28.062Z,9.45
2023-05-23T06:45:04.296Z,9.23
2023-05-23T06:47:32.438Z,8.75
2023-05-23T06:50:02.446Z,8.48
2023-05-23T06:52:29.364Z,9.82
2023-05-23T06:54:56.808Z,8.32
2023-05-23T06:57:24.183Z,9.60
2023-05-23T06:59:51.453Z,8.60
2023-05-23T07:02:18.136Z,8.02
2023-05-23T07:04:46.052Z,7.85
2023-05-23T07:07:19.135Z,8.27
2023-05-23T07:09:46.503Z,8.82
2023-05-23T07:12:17.419Z,8.65
2023-05-23T07:14:46.727Z,8.73
2023-05-23T07:17:14.629Z,8.43
2023-05-23T07:19:41.569Z,8.18
2023-05-23T07:22:08.325Z,7.78
2023-05-23T07:24:38.110Z,8.38
2023-05-23T07:27:06.524Z,7.28
2023-05-23T07:29:34.354Z,8.10
2023-05-23T07:32:01.292Z,7.35
2023-05-23T07:34:29.151Z,6.80
2023-05-23T07:37:02.967Z,8.30
2023-05-23T07:39:36.863Z,7.10
2023-05-23T07:42:04.429Z,9.20
2023-05-23T07:44:31.332Z,8.23
2023-05-23T07:46:58.780Z,8.55
2023-05-23T07:49:26.778Z,8.07
2023-05-23T07:51:54.401Z,7.95
2023-05-23T07:54:21.428Z,8.48
2023-05-23T07:56:53.790Z,8.23
2023-05-23T07:59:20.664Z,9.48
2023-05-23T08:01:52.874Z,8.88
2023-05-23T08:04:22.390Z,7.25
2023-05-23T08:07:04.860Z,8.52
2023-05-23T08:09:53.005Z,7.95
2023-05-23T08:12:20.741Z,8.18
2023-05-23T08:14:52.611Z,7.28
2023-05-23T08:17:42.409Z,7.20
2023-05-23T08:20:11.936Z,7.03
2023-05-23T08:22:38.627Z,7.25
2023-05-23T08:25:07.218Z,7.45
2023-05-23T08:27:36.732Z,7.13
2023-05-23T08:30:11.562Z,7.00
2023-05-23T08:32:38.973Z,7.28
2023-05-23T08:35:06.470Z,6.72
2023-05-23T08:37:33.263Z,6.88
2023-05-23T08:40:00.014Z,6.55
2023-05-23T08:42:43.483Z,8.02
2023-05-23T08:45:12.065Z,8.13
2023-05-23T08:47:42.186Z,7.30
2023-05-23T08:50:16.865Z,6.72
2023-05-23T08:52:56.046Z,7.55
2023-05-23T08:55:30.027Z,7.20
2023-05-23T08:58:01.874Z,7.75
2023-05-23T09:00:46.369Z,6.85
2023-05-23T09:03:14.241Z,7.07
2023-05-23T09:05:50.521Z,7.05
2023-05-23T09:08:19.140Z,7.20
2023-05-23T09:10:46.279Z,6.78
2023-05-23T09:13:15.394Z,8.65
2023-05-23T09:16:00.370Z,7.50
2023-05-23T09:18:44.465Z,8.05
2023-05-23T09:21:14.608Z,6.50
2023-05-23T09:23:53.261Z,6.88
2023-05-23T09:26:20.027Z,6.70
2023-05-23T09:28:47.074Z,6.82
2023-05-23T09:31:14.644Z,7.55
2023-05-23T09:33:48.589Z,7.22
2023-05-23T09:36:17.691Z,6.70
2023-05-23T09:38:46.253Z,5.60
2023-05-23T09:41:13.328Z,7.15
2023-05-23T09:43:50.547Z,6.65
2023-05-23T09:46:17.436Z,6.38
2023-05-23T09:48:52.325Z,6.25
2023-05-23T09:51:21.580Z,6.25
2023-05-23T09:53:48.903Z,8.30
2023-05-23T09:56:19.663Z,7.88
2023-05-23T09:58:50.803Z,7.18
2023-05-23T10:01:18.155Z,6.60
2023-05-23T10:03:46.108Z,7.93
2023-05-23T10:06:49.133Z,6.28
2023-05-23T10:09:20.845Z,6.25
2023-05-23T10:11:59.783Z,6.30
2023-05-23T10:14:29.974Z,6.38
2023-05-23T10:17:11.955Z,6.43
2023-05-23T10:20:10.775Z,6.70
2023-05-23T10:22:38.232Z,6.25
2023-05-23T10:25:06.448Z,6.43
2023-05-23T10:27:33.360Z,6.93
2023-05-23T10:30:01.006Z,6.32
2023-05-23T10:32:29.331Z,6.68
2023-05-23T10:35:02.275Z,6.18
2023-05-23T10:37:55.987Z,6.90
2023-05-23T10:40:37.538Z,7.30
2023-05-23T10:43:20.774Z,6.28
2023-05-23T10:45:53.169Z,7.55
2023-05-23T10:48:33.859Z,5.93
2023-05-23T10:51:08.531Z,6.10
2023-05-23T10:53:37.174Z,4.93
2023-05-23T10:56:08.651Z,6.57
2023-05-23T10:58:41.238Z,6.85
2023-05-23T11:01:13.227Z,6.05
2023-05-23T11:03:46.765Z,5.53
2023-05-23T11:06:45.051Z,5.82
2023-05-23T11:09:19.898Z,6.63
2023-05-23T11:11:52.485Z,5.70
2023-05-23T11:14:38.244Z,5.43
2023-05-23T11:17:13.813Z,6.10
2023-05-23T11:19:55.527Z,5.88
2023-05-23T11:24:55.733Z,5.35
2023-05-23T11:27:36.301Z,6.10
2023-05-23T11:30:16.409Z,6.15
2023-05-23T11:32:54.221Z,6.28
2023-05-23T11:35:21.673Z,6.25
2023-05-23T11:37:48.972Z,4.97
2023-05-23T11:40:31.194Z,5.15
2023-05-23T11:42:58.794Z,5.75
2023-05-23T11:45:27.234Z,5.13
2023-05-23T11:47:54.083Z,4.93
2023-05-23T11:50:20.715Z,5.68
2023-05-23T11:52:51.728Z,6.30
2023-05-23T11:55:22.731Z,5.30
2023-05-23T11:57:53.440Z,5.45
2023-05-23T12:00:20.434Z,5.33
2023-05-23T12:02:48.846Z,4.75
2023-05-23T12:05:16.298Z,5.30
2023-05-23T12:07:47.847Z,5.45
2023-05-23T12:12:44.540Z,5.38
2023-05-23T12:15:12.204Z,5.88
2023-05-23T12:17:47.349Z,4.80
2023-05-23T12:20:14.250Z,4.53
2023-05-23T12:22:42.057Z,5.60
2023-05-23T12:25:10.679Z,5.18
2023-05-23T12:27:40.059Z,5.55
2023-05-23T12:30:09.468Z,5.53
2023-05-23T12:32:43.357Z,4.55
2023-05-23T12:35:16.060Z,5.20
2023-05-23T12:37:45.894Z,5.18
2023-05-23T12:40:17.765Z,5.68
2023-05-23T12:42:53.715Z,5.22
2023-05-23T12:45:24.868Z,6.25
2023-05-23T12:47:53.903Z,5.70
2023-05-23T12:50:21.199Z,5.22
2023-05-23T12:52:47.814Z,5.35
2023-05-23T12:55:14.721Z,4.85
2023-05-23T12:57:41.288Z,5.50
2023-05-23T13:00:09.143Z,5.70
2023-05-23T13:02:35.949Z,5.47
2023-05-23T13:05:02.776Z,5.93
2023-05-23T13:07:31.594Z,5.75
2023-05-23T13:09:58.243Z,5.22
2023-05-23T13:12:27.674Z,4.95
2023-05-23T13:14:54.306Z,5.22
2023-05-23T13:17:20.978Z,5.32
2023-05-23T13:19:47.643Z,5.65
2023-05-23T13:22:14.262Z,4.45
2023-05-23T13:24:41.568Z,5.40
2023-05-23T13:27:08.250Z,5.18
2023-05-23T13:29:35.047Z,5.85
2023-05-23T13:32:01.641Z,5.53
2023-05-23T13:34:28.757Z,4.72
2023-05-23T13:36:55.656Z,5.40
2023-05-23T13:39:22.795Z,4.90
2023-05-23T13:41:50.631Z,4.80
2023-05-23T13:44:17.269Z,4.85
2023-05-23T13:46:44.006Z,5.40
2023-05-23T13:49:11.016Z,5.15
2023-05-23T13:51:37.622Z,5.97
2023-05-23T13:54:04.811Z,5.28
2023-05-23T13:56:32.105Z,4.43
2023-05-23T13:59:00.132Z,5.68
2023-05-23T14:01:26.896Z,4.93
2023-05-23T14:03:53.663Z,5.47
2023-05-23T14:06:20.813Z,5.03
2023-05-23T14:08:47.450Z,4.97
2023-05-23T14:11:14.028Z,4.93
2023-05-23T14:13:40.706Z,5.05
2023-05-23T14:16:07.242Z,5.07
2023-05-23T14:18:33.882Z,5.10
2023-05-23T14:21:00.412Z,5.15
2023-05-23T14:23:27.039Z,5.57
2023-05-23T14:25:53.634Z,5.22
2023-05-23T14:28:20.314Z,4.90
2023-05-23T14:30:47.108Z,4.90
2023-05-23T14:33:14.050Z,6.43
2023-05-23T14:35:42.281Z,4.90
2023-05-23T14:38:09.417Z,5.40
2023-05-23T14:40:36.068Z,5.50
2023-05-23T14:43:02.695Z,5.88
2023-05-23T14:45:29.365Z,6.55
2023-05-23T14:50:10.298Z,6.88
2023-05-23T14:52:37.045Z,7.97
2023-05-23T14:55:03.708Z,7.35
2023-05-23T14:57:30.380Z,8.50
2023-05-23T14:59:57.229Z,8.40
2023-05-23T15:02:23.886Z,7.80
2023-05-23T15:04:51.624Z,7.88
2023-05-23T15:07:18.336Z,9.77
2023-05-23T15:09:45.880Z,8.13
2023-05-23T15:12:13.758Z,8.70
2023-05-23T15:14:40.298Z,8.55
2023-05-23T15:17:09.795Z,8.80
2023-05-23T15:19:37.069Z,8.60
2023-05-23T15:22:04.737Z,8.55
2023-05-23T15:24:31.596Z,9.60
2023-05-23T15:27:11.702Z,9.00
2023-05-23T15:29:46.177Z,9.95
2023-05-23T15:32:12.806Z,9.25
2023-05-23T15:34:40.537Z,10.27
2023-05-23T15:37:07.085Z,10.55
2023-05-23T15:39:33.734Z,9.82
2023-05-23T15:42:00.483Z,9.38
2023-05-23T15:44:27.382Z,10.40
2023-05-23T15:46:54.085Z,12.55
2023-05-23T15:49:26.428Z,10.02
2023-05-23T15:51:55.002Z,9.18
2023-05-23T15:54:21.854Z,11.02
2023-05-23T15:56:48.482Z,10.93
2023-05-23T15:59:15.167Z,11.07
2023-05-23T16:01:41.977Z,11.75
2023-05-23T16:04:08.765Z,10.65
2023-05-23T16:06:36.619Z,10.93
2023-05-23T16:09:03.462Z,10.63
2023-05-23T16:11:30.271Z,10.43
2023-05-23T16:13:56.864Z,8.80
2023-05-23T16:16:23.515Z,9.90
2023-05-23T16:18:50.149Z,9.02
2023-05-23T16:21:20.582Z,8.93
2023-05-23T16:23:48.865Z,8.98
2023-05-23T16:26:16.851Z,9.90
2023-05-23T16:28:43.718Z,8.65
2023-05-23T16:31:15.090Z,8.65
2023-05-23T16:33:42.463Z,9.80
2023-05-23T16:36:09.369Z,10.18
2023-05-23T16:38:36.127Z,9.85
2023-05-23T16:41:02.724Z,11.40
2023-05-23T16:43:29.739Z,11.00
2023-05-23T16:45:59.262Z,11.82
2023-05-23T16:48:27.021Z,11.57
2023-05-23T16:50:55.010Z,10.98
2023-05-23T16:53:21.777Z,12.93
2023-05-23T16:55:48.422Z,12.63
2023-05-23T16:58:15.287Z,12.57
2023-05-23T17:00:41.933Z,12.75
2023-05-23T17:03:09.069Z,13.93
2023-05-23T17:05:35.830Z,14.63
2023-05-23T17:08:02.754Z,15.38
2023-05-23T17:10:29.408Z,13.80
2023-05-23T17:12:56.110Z,14.30
2023-05-23T17:15:22.798Z,13.57
2023-05-23T17:17:49.746Z,12.65
2023-05-23T17:20:16.852Z,13.68
2023-05-23T17:22:43.602Z,12.77
2023-05-23T17:27:40.495Z,13.10
2023-05-23T17:30:08.089Z,14.27
2023-05-23T17:32:35.107Z,14.10
2023-05-23T17:35:01.856Z,14.13
2023-05-23T17:37:28.401Z,13.63
2023-05-23T17:42:10.049Z,13.27
2023-05-23T17:44:36.611Z,13.35
2023-05-23T17:47:03.228Z,13.13
2023-05-23T17:49:30.702Z,14.07
2023-05-23T17:51:57.680Z,14.65
2023-05-23T17:54:24.382Z,14.43
2023-05-23T17:56:53.958Z,15.38
2023-05-23T17:59:20.646Z,14.40
2023-05-23T18:01:47.303Z,15.63
2023-05-23T18:04:13.951Z,15.45
2023-05-23T18:06:43.471Z,16.88
2023-05-23T18:09:10.136Z,15.15
2023-05-23T18:11:38.182Z,15.93
2023-05-23T18:14:05.003Z,15.55
2023-05-23T18:16:32.256Z,16.45
2023-05-23T18:19:01.601Z,17.05
2023-05-23T18:21:28.904Z,15.55
2023-05-23T18:23:55.742Z,16.55
2023-05-23T18:26:22.872Z,16.80
2023-05-23T18:28:49.559Z,17.17
2023-05-23T18:31:16.175Z,15.55
2023-05-23T18:33:42.924Z,16.00
2023-05-23T18:36:09.478Z,15.07
2023-05-23T18:38:36.286Z,14.57
2023-05-23T18:41:03.042Z,15.48
2023-05-23T18:43:29.625Z,14.05
2023-05-23T18:45:56.271Z,13.23
2023-05-23T18:48:23.023Z,10.95
2023-05-23T18:50:49.603Z,12.00
2023-05-23T18:53:16.621Z,11.50
2023-05-23T18:55:43.404Z,12.70
2023-05-23T18:58:10.052Z,11.75
2023-05-23T19:00:36.592Z,11.13
2023-05-23T19:03:04.126Z,12.15
2023-05-23T19:05:31.690Z,12.57
2023-05-23T19:07:58.375Z,12.20
2023-05-23T19:10:24.945Z,11.90
2023-05-23T19:12:51.889Z,13.30
2023-05-23T19:15:19.318Z,12.98
2023-05-23T19:17:46.689Z,12.27
2023-05-23T19:20:18.214Z,13.00
2023-05-23T19:27:43.687Z,12.82
2023-05-23T19:30:11.588Z,11.57
2023-05-23T19:32:38.294Z,11.27
2023-05-23T19:35:05.766Z,12.05
2023-05-23T19:37:32.448Z,13.68
2023-05-23T19:39:59.120Z,13.93
2023-05-23T19:42:25.719Z,13.68
2023-05-23T19:44:52.536Z,15.20
2023-05-23T19:47:19.108Z,14.63
2023-05-23T19:49:46.212Z,14.57
2023-05-23T19:52:12.987Z,16.35
2023-05-23T19:54:39.662Z,15.43
2023-05-23T19:57:09.164Z,15.52
2023-05-23T19:59:35.943Z,17.15
2023-05-23T20:02:03.853Z,15.93
2023-05-23T20:04:32.923Z,14.93
2023-05-23T20:07:00.313Z,13.95
2023-05-23T20:09:27.100Z,13.77
2023-05-23T20:11:53.667Z,14.50
2023-05-23T20:14:20.604Z,14.20
2023-05-23T20:16:47.199Z,15.25
2023-05-23T20:19:14.104Z,15.07
2023-05-23T20:21:41.185Z,15.80
2023-05-23T20:24:07.998Z,14.98
2023-05-23T20:26:34.578Z,17.52
2023-05-23T20:29:01.184Z,16.17
2023-05-23T20:31:27.933Z,16.75
2023-05-23T20:33:54.624Z,16.20
2023-05-23T20:36:21.341Z,18.52
2023-05-23T20:38:48.096Z,16.90
2023-05-23T20:41:14.762Z,17.02
2023-05-23T20:43:41.738Z,16.65
2023-05-23T20:46:11.610Z,17.52
2023-05-23T20:48:38.188Z,19.67
2023-05-23T20:51:05.882Z,20.42
2023-05-23T20:53:33.334Z,20.25
2023-05-23T20:56:00.693Z,20.65
2023-05-23T20:58:27.477Z,20.48
2023-05-23T21:00:54.651Z,20.38
2023-05-23T21:03:22.025Z,20.30
2023-05-23T21:05:48.712Z,22.50
2023-05-23T21:08:15.345Z,22.23
2023-05-23T21:10:42.157Z,22.00
2023-05-23T21:13:09.457Z,21.67
2023-05-23T21:15:35.970Z,21.20
2023-05-23T21:18:03.456Z,22.17
2023-05-23T21:20:30.648Z,20.95
2023-05-23T21:22:57.539Z,21.15
2023-05-23T21:25:24.115Z,22.63
2023-05-23T21:27:50.957Z,21.77
2023-05-23T21:30:17.531Z,24.00
2023-05-23T21:32:44.882Z,22.77
2023-05-23T21:35:11.681Z,24.08
2023-05-23T21:37:38.286Z,23.35
2023-05-23T21:40:06.272Z,25.77
2023-05-23T21:42:33.007Z,25.65
2023-05-23T21:44:59.639Z,24.88
2023-05-23T21:47:26.332Z,25.38
2023-05-23T21:49:52.949Z,25.85
2023-05-23T21:52:19.725Z,24.95
2023-05-23T21:54:48.675Z,26.85
2023-05-23T21:57:16.078Z,25.23
2023-05-23T21:59:42.699Z,24.67
2023-05-23T22:02:10.190Z,27.27
2023-05-23T22:04:36.908Z,27.73
2023-05-23T22:07:03.705Z,28.33
2023-05-23T22:09:30.288Z,29.23
2023-05-23T22:11:57.820Z,27.83
2023-05-23T22:14:24.421Z,29.30
2023-05-23T22:16:51.947Z,28.52
2023-05-23T22:19:20.051Z,30.00
2023-05-23T22:21:47.391Z,32.03
2023-05-23T22:24:13.959Z,30.73
2023-05-23T22:26:40.739Z,34.13
2023-05-23T22:29:07.840Z,32.72
2023-05-23T22:31:35.428Z,33.17
2023-05-23T22:34:02.503Z,33.47
2023-05-23T22:36:29.716Z,34.28
2023-05-23T22:38:56.476Z,35.83
2023-05-23T22:41:23.488Z,41.60
2023-05-23T22:43:50.557Z,36.65
2023-05-23T22:46:17.167Z,40.20
2023-05-23T22:51:02.395Z,40.33
2023-05-23T22:53:29.996Z,39.55
2023-05-23T22:55:56.841Z,43.58
2023-05-23T22:58:23.647Z,44.50
2023-05-23T23:00:50.317Z,45.55
2023-05-23T23:03:17.069Z,43.50
2023-05-23T23:05:44.398Z,40.83
2023-05-23T23:08:12.300Z,43.70
2023-05-23T23:10:40.350Z,43.60
2023-05-23T23:13:07.366Z,42.55
2023-05-23T23:15:34.106Z,41.33
2023-05-23T23:18:01.277Z,43.17
2023-05-23T23:20:28.304Z,43.50
2023-05-23T23:22:55.032Z,42.75
2023-05-23T23:25:21.996Z,46.00
2023-05-23T23:27:48.786Z,45.03
2023-05-23T23:30:15.927Z,44.55
2023-05-23T23:32:42.672Z,43.60
2023-05-23T23:35:09.474Z,46.83
2023-05-23T23:37:36.155Z,43.97
2023-05-23T23:40:02.819Z,48.10
2023-05-23T23:42:29.913Z,45.90
2023-05-23T23:44:56.587Z,44.85
2023-05-23T23:47:23.173Z,44.47
2023-05-23T23:49:49.780Z,43.33
2023-05-23T23:52:16.566Z,47.17
2023-05-23T23:54:43.238Z,45.35
2023-05-23T23:57:14.178Z,48.13
2023-05-23T23:59:41.832Z,46.95
